createdAt,value
2022-09-29T00:01:04.608Z,10.80
2022-09-29T00:03:31.671Z,10.80
2022-09-29T00:05:58.931Z,10.80
2022-09-29T00:08:29.271Z,10.80
2022-09-29T00:10:57.372Z,10.90
2022-09-29T00:13:24.382Z,10.90
2022-09-29T00:16:00.390Z,10.80
2022-09-29T00:18:29.653Z,10.90
2022-09-29T00:21:14.629Z,10.90
2022-09-29T00:23:42.029Z,10.90
2022-09-29T00:26:14.502Z,10.90
2022-09-29T00:28:52.661Z,10.90
2022-09-29T00:31:21.146Z,10.90
2022-09-29T00:33:48.079Z,10.90
2022-09-29T00:36:18.162Z,10.90
2022-09-29T00:38:47.263Z,10.90
2022-09-29T00:41:30.531Z,10.90
2022-09-29T00:44:13.297Z,10.90
2022-09-29T00:46:48.755Z,10.90
2022-09-29T00:49:39.159Z,10.90
2022-09-29T00:52:20.963Z,10.90
2022-09-29T00:55:00.163Z,10.90
2022-09-29T00:57:43.920Z,10.90
2022-09-29T01:00:15.128Z,10.90
2022-09-29T01:02:52.850Z,10.80
2022-09-29T01:05:32.551Z,10.80
2022-09-29T01:08:12.715Z,10.90
2022-09-29T01:10:43.866Z,10.90
2022-09-29T01:13:11.430Z,10.90
2022-09-29T01:15:38.898Z,10.90
2022-09-29T01:18:06.866Z,10.80
2022-09-29T01:20:47.939Z,10.80
2022-09-29T01:23:52.033Z,10.80
2022-09-29T01:26:39.294Z,10.80
2022-09-29T01:29:34.395Z,10.70
2022-09-29T01:32:56.872Z,10.70
2022-09-29T01:35:39.269Z,10.70
2022-09-29T01:38:35.894Z,10.70
2022-09-29T01:41:33.287Z,10.70
2022-09-29T01:44:22.909Z,10.70
2022-09-29T01:47:39.840Z,10.60
2022-09-29T01:50:18.863Z,10.70
2022-09-29T01:52:52.523Z,10.70
2022-09-29T01:55:26.867Z,10.70
2022-09-29T01:58:03.108Z,10.60
2022-09-29T02:00:43.773Z,10.70
2022-09-29T02:03:25.678Z,10.60
2022-09-29T02:06:08.988Z,10.60
2022-09-29T02:08:43.051Z,10.70
2022-09-29T02:11:13.762Z,10.60
2022-09-29T02:14:05.634Z,10.60
2022-09-29T02:16:41.335Z,10.60
2022-09-29T02:19:20.916Z,10.60
2022-09-29T02:21:48.077Z,10.60
2022-09-29T02:24:15.870Z,10.60
2022-09-29T02:26:45.199Z,10.60
2022-09-29T02:29:12.137Z,10.60
2022-09-29T02:31:40.239Z,10.60
2022-09-29T02:34:13.298Z,10.60
2022-09-29T02:37:13.163Z,10.60
2022-09-29T02:39:57.487Z,10.60
2022-09-29T02:42:46.838Z,10.60
2022-09-29T02:45:33.611Z,10.60
2022-09-29T02:48:33.120Z,10.50
2022-09-29T02:51:21.969Z,10.50
2022-09-29T02:54:26.069Z,10.50
2022-09-29T02:57:01.521Z,10.50
2022-09-29T02:59:46.040Z,10.50
2022-09-29T03:02:16.401Z,10.50
2022-09-29T03:04:43.365Z,10.50
2022-09-29T03:07:10.167Z,10.50
2022-09-29T03:09:37.042Z,10.50
2022-09-29T03:12:04.091Z,10.50
2022-09-29T03:14:31.032Z,10.50
2022-09-29T03:16:57.904Z,10.50
2022-09-29T03:19:25.030Z,10.50
2022-09-29T03:21:51.802Z,10.50
2022-09-29T03:24:18.658Z,10.50
2022-09-29T03:26:45.454Z,10.50
2022-09-29T03:29:12.515Z,10.50
2022-09-29T03:31:42.474Z,10.50
2022-09-29T03:34:09.413Z,10.50
2022-09-29T03:36:36.822Z,10.50
2022-09-29T03:39:04.026Z,10.50
2022-09-29T03:41:30.919Z,10.50
2022-09-29T03:44:00.664Z,10.50
2022-09-29T03:46:27.491Z,10.50
2022-09-29T03:48:55.100Z,10.50
2022-09-29T03:51:21.958Z,10.50
2022-09-29T03:53:48.814Z,10.50
2022-09-29T03:56:15.875Z,10.60
2022-09-29T03:58:42.962Z,10.50
2022-09-29T04:01:09.906Z,10.50
2022-09-29T04:03:37.009Z,10.50
2022-09-29T04:06:04.106Z,10.50
2022-09-29T04:08:30.987Z,10.50
2022-09-29T04:11:00.635Z,10.50
2022-09-29T04:13:27.446Z,10.50
2022-09-29T04:16:03.968Z,10.50
2022-09-29T04:18:31.683Z,10.50
2022-09-29T04:21:00.620Z,10.50
2022-09-29T04:23:30.384Z,10.50
2022-09-29T04:25:58.302Z,10.40
2022-09-29T04:28:25.803Z,10.50
2022-09-29T04:30:52.632Z,10.50
2022-09-29T04:33:19.765Z,10.40
2022-09-29T04:35:46.862Z,10.40
2022-09-29T04:38:13.791Z,10.40
2022-09-29T04:40:41.346Z,10.40
2022-09-29T04:43:08.334Z,10.50
2022-09-29T04:45:35.285Z,10.40
2022-09-29T04:48:02.311Z,10.40
2022-09-29T04:50:29.652Z,10.40
2022-09-29T04:52:58.720Z,10.40
2022-09-29T04:55:26.595Z,10.40
2022-09-29T04:57:53.677Z,10.40
2022-09-29T05:00:21.422Z,10.40
2022-09-29T05:02:49.953Z,10.40
2022-09-29T05:05:17.461Z,10.40
2022-09-29T05:07:44.561Z,10.40
2022-09-29T05:10:11.704Z,10.40
2022-09-29T05:12:38.573Z,10.40
2022-09-29T05:15:06.569Z,10.40
2022-09-29T05:17:34.215Z,10.40
2022-09-29T05:20:01.363Z,10.40
2022-09-29T05:22:28.272Z,10.40
2022-09-29T05:24:55.199Z,10.30
2022-09-29T05:27:22.317Z,10.30
2022-09-29T05:29:49.677Z,10.30
2022-09-29T05:32:16.735Z,10.30
2022-09-29T05:34:43.783Z,10.30
2022-09-29T05:37:11.433Z,10.30
2022-09-29T05:39:39.630Z,10.30
2022-09-29T05:42:11.696Z,10.30
2022-09-29T05:44:38.590Z,10.30
2022-09-29T05:47:05.653Z,10.30
2022-09-29T05:49:33.084Z,10.30
2022-09-29T05:52:00.481Z,10.30
2022-09-29T05:54:27.564Z,10.20
2022-09-29T05:56:56.013Z,10.20
2022-09-29T05:59:23.178Z,10.20
2022-09-29T06:01:50.145Z,10.20
2022-09-29T06:04:17.501Z,10.20
2022-09-29T06:06:44.667Z,10.20
2022-09-29T06:09:11.543Z,10.20
2022-09-29T06:11:38.435Z,10.20
2022-09-29T06:14:05.437Z,10.20
2022-09-29T06:16:33.962Z,10.30
2022-09-29T06:19:02.297Z,10.20
2022-09-29T06:21:31.324Z,10.20
2022-09-29T06:23:58.764Z,10.30
2022-09-29T06:26:27.061Z,10.30
2022-09-29T06:28:55.523Z,10.30
2022-09-29T06:31:26.465Z,10.30
2022-09-29T06:33:56.403Z,10.40
2022-09-29T06:36:46.881Z,10.30
2022-09-29T06:39:15.805Z,10.40
2022-09-29T06:41:56.438Z,10.40
2022-09-29T06:44:26.885Z,10.40
2022-09-29T06:46:54.827Z,10.40
2022-09-29T06:49:22.828Z,10.40
2022-09-29T06:51:50.900Z,10.40
2022-09-29T06:54:21.473Z,10.40
2022-09-29T06:56:50.214Z,10.50
2022-09-29T06:59:18.169Z,10.50
2022-09-29T07:01:49.519Z,10.50
2022-09-29T07:04:16.746Z,10.50
2022-09-29T07:06:45.630Z,10.50
2022-09-29T07:09:16.159Z,10.60
2022-09-29T07:11:50.130Z,10.50
2022-09-29T07:14:20.057Z,10.60
2022-09-29T07:16:48.363Z,10.60
2022-09-29T07:19:18.124Z,10.60
2022-09-29T07:21:46.736Z,10.70
2022-09-29T07:24:13.709Z,10.70
2022-09-29T07:26:40.631Z,10.80
2022-09-29T07:29:11.383Z,10.80
2022-09-29T07:31:49.394Z,10.80
2022-09-29T07:34:17.640Z,10.90
2022-09-29T07:36:44.505Z,10.90
2022-09-29T07:39:11.375Z,10.90
2022-09-29T07:41:38.198Z,10.90
2022-09-29T07:44:05.151Z,11.00
2022-09-29T07:46:32.852Z,11.00
2022-09-29T07:48:59.790Z,11.10
2022-09-29T07:51:26.826Z,11.10
2022-09-29T07:53:53.822Z,11.20
2022-09-29T07:56:23.116Z,11.20
2022-09-29T07:58:51.027Z,11.30
2022-09-29T08:01:20.088Z,11.40
2022-09-29T08:03:54.338Z,11.40
2022-09-29T08:06:23.490Z,11.50
2022-09-29T08:09:02.107Z,11.60
2022-09-29T08:11:33.105Z,11.60
2022-09-29T08:14:01.987Z,11.70
2022-09-29T08:16:31.413Z,11.80
2022-09-29T08:19:00.691Z,11.90
2022-09-29T08:21:29.806Z,11.90
2022-09-29T08:23:56.901Z,12.00
2022-09-29T08:26:39.049Z,12.10
2022-09-29T08:29:11.506Z,12.10
2022-09-29T08:31:40.445Z,12.20
2022-09-29T08:34:07.757Z,12.30
2022-09-29T08:36:34.696Z,12.30
2022-09-29T08:39:01.725Z,12.30
2022-09-29T08:41:37.613Z,12.40
2022-09-29T08:44:32.519Z,12.40
2022-09-29T08:47:10.722Z,12.50
2022-09-29T08:50:15.355Z,12.50
2022-09-29T08:52:53.725Z,12.60
2022-09-29T08:55:29.041Z,12.60
2022-09-29T08:58:01.329Z,12.70
2022-09-29T09:01:03.307Z,12.80
2022-09-29T09:04:02.959Z,12.90
2022-09-29T09:07:11.114Z,12.90
2022-09-29T09:10:33.770Z,13.00
2022-09-29T09:13:26.917Z,13.10
2022-09-29T09:16:16.088Z,13.20
2022-09-29T09:18:55.617Z,13.30
2022-09-29T09:21:35.868Z,13.40
2022-09-29T09:24:33.793Z,13.50
2022-09-29T09:27:01.125Z,13.60
2022-09-29T09:29:42.617Z,13.70
2022-09-29T09:32:25.705Z,13.80
2022-09-29T09:35:22.833Z,13.90
2022-09-29T09:37:53.935Z,14.10
2022-09-29T09:40:29.671Z,14.20
2022-09-29T09:43:19.883Z,14.30
2022-09-29T09:46:20.831Z,14.40
2022-09-29T09:49:07.051Z,14.50
2022-09-29T09:51:50.918Z,14.60
2022-09-29T09:54:36.863Z,14.70
2022-09-29T09:57:26.887Z,14.80
2022-09-29T10:00:15.896Z,14.80
2022-09-29T10:02:52.558Z,14.90
2022-09-29T10:05:26.306Z,15.10
2022-09-29T10:07:55.352Z,15.10
2022-09-29T10:10:26.478Z,15.20
2022-09-29T10:13:05.557Z,15.30
2022-09-29T10:16:13.602Z,15.40
2022-09-29T10:18:45.739Z,15.50
2022-09-29T10:21:27.190Z,15.60
2022-09-29T10:23:57.902Z,15.80
2022-09-29T10:26:43.307Z,15.90
2022-09-29T10:29:41.259Z,16.00
2022-09-29T10:32:21.851Z,16.10
2022-09-29T10:35:03.917Z,16.30
2022-09-29T10:37:38.753Z,16.40
2022-09-29T10:40:08.698Z,16.50
2022-09-29T10:42:38.965Z,16.60
2022-09-29T10:45:19.556Z,16.70
2022-09-29T10:48:04.224Z,16.70
2022-09-29T10:50:50.877Z,16.80
2022-09-29T10:53:39.634Z,16.80
2022-09-29T10:56:17.821Z,16.90
2022-09-29T10:59:05.659Z,16.90
2022-09-29T11:01:47.563Z,16.90
2022-09-29T11:04:34.848Z,16.90
2022-09-29T11:07:12.399Z,16.90
2022-09-29T11:09:43.254Z,17.00
2022-09-29T11:12:38.844Z,16.90
2022-09-29T11:15:38.886Z,16.90
2022-09-29T11:18:27.265Z,16.90
2022-09-29T11:21:20.031Z,16.90
2022-09-29T11:24:01.717Z,16.90
2022-09-29T11:27:17.117Z,16.90
2022-09-29T11:30:06.611Z,16.90
2022-09-29T11:32:54.841Z,16.90
2022-09-29T11:35:53.810Z,16.90
2022-09-29T11:38:40.764Z,17.00
2022-09-29T11:41:45.402Z,17.00
2022-09-29T11:44:42.923Z,17.00
2022-09-29T11:47:35.526Z,17.00
2022-09-29T11:50:24.649Z,17.00
2022-09-29T11:53:04.373Z,17.00
2022-09-29T11:56:08.865Z,16.80
2022-09-29T11:58:58.133Z,17.10
2022-09-29T12:01:58.531Z,17.10
2022-09-29T12:04:56.542Z,17.20
2022-09-29T12:08:18.069Z,17.30
2022-09-29T12:10:56.982Z,17.40
2022-09-29T12:14:08.085Z,17.50
2022-09-29T12:16:43.071Z,17.60
2022-09-29T12:19:16.620Z,17.60
2022-09-29T12:21:51.943Z,17.70
2022-09-29T12:24:44.226Z,17.70
2022-09-29T12:27:22.690Z,17.70
2022-09-29T12:30:03.249Z,17.70
2022-09-29T12:32:39.825Z,17.70
2022-09-29T12:35:40.852Z,17.70
2022-09-29T12:38:46.421Z,17.70
2022-09-29T12:41:34.279Z,17.80
2022-09-29T12:44:29.269Z,17.80
2022-09-29T12:47:31.944Z,17.80
2022-09-29T12:50:38.965Z,17.80
2022-09-29T12:53:25.363Z,17.80
2022-09-29T12:56:02.735Z,17.80
2022-09-29T12:58:53.607Z,17.80
2022-09-29T13:01:33.257Z,17.90
2022-09-29T13:04:29.282Z,17.90
2022-09-29T13:07:43.266Z,17.90
2022-09-29T13:11:03.520Z,17.80
2022-09-29T13:14:10.728Z,17.90
2022-09-29T13:17:21.060Z,17.90
2022-09-29T13:20:22.976Z,17.90
2022-09-29T13:23:19.892Z,17.90
2022-09-29T13:26:23.978Z,17.90
2022-09-29T13:29:00.149Z,18.00
2022-09-29T13:31:33.716Z,18.00
2022-09-29T13:34:03.868Z,18.00
2022-09-29T13:36:44.071Z,18.00
2022-09-29T13:39:25.474Z,18.00
2022-09-29T13:41:56.145Z,18.10
2022-09-29T13:44:27.912Z,18.10
2022-09-29T13:46:57.107Z,18.20
2022-09-29T13:49:30.283Z,18.30
2022-09-29T13:52:12.468Z,18.30
2022-09-29T13:54:44.183Z,18.40
2022-09-29T13:57:16.998Z,18.40
2022-09-29T13:59:54.674Z,18.40
2022-09-29T14:03:00.962Z,18.50
2022-09-29T14:05:27.754Z,18.50
2022-09-29T14:07:58.007Z,18.60
2022-09-29T14:11:02.812Z,18.60
2022-09-29T14:13:40.712Z,18.70
2022-09-29T14:16:39.332Z,18.70
2022-09-29T14:19:35.964Z,18.80
2022-09-29T14:22:26.319Z,18.90
2022-09-29T14:24:55.717Z,19.00
2022-09-29T14:28:06.091Z,19.10
2022-09-29T14:30:35.856Z,19.20
2022-09-29T14:33:21.808Z,19.20
2022-09-29T14:36:01.337Z,19.30
2022-09-29T14:39:21.498Z,19.40
2022-09-29T14:41:47.323Z,19.40
2022-09-29T14:44:48.035Z,19.50
2022-09-29T14:48:27.268Z,19.40
2022-09-29T14:51:35.547Z,19.40
2022-09-29T14:54:34.051Z,19.40
2022-09-29T14:57:32.980Z,19.50
2022-09-29T15:00:17.852Z,19.50
2022-09-29T15:02:59.614Z,19.40
2022-09-29T15:05:35.643Z,19.40
2022-09-29T15:08:26.218Z,19.40
2022-09-29T15:10:53.181Z,19.40
2022-09-29T15:13:31.542Z,19.40
2022-09-29T15:16:12.692Z,19.40
2022-09-29T15:19:06.564Z,19.30
2022-09-29T15:21:55.442Z,19.30
2022-09-29T15:24:33.172Z,19.30
2022-09-29T15:27:06.521Z,19.20
2022-09-29T15:29:33.422Z,19.20
2022-09-29T15:32:02.037Z,19.20
2022-09-29T15:34:28.976Z,19.20
2022-09-29T15:36:58.540Z,19.10
2022-09-29T15:39:31.760Z,19.00
2022-09-29T15:42:12.060Z,19.00
2022-09-29T15:44:39.113Z,18.90
2022-09-29T15:47:06.343Z,18.90
2022-09-29T15:49:33.222Z,18.80
2022-09-29T15:52:14.898Z,18.70
2022-09-29T15:54:47.547Z,18.70
2022-09-29T15:57:53.427Z,18.60
2022-09-29T16:00:32.011Z,18.50
2022-09-29T16:03:24.182Z,18.40
2022-09-29T16:06:08.587Z,18.40
2022-09-29T16:08:43.177Z,18.30
2022-09-29T16:11:25.987Z,18.30
2022-09-29T16:14:06.844Z,18.20
2022-09-29T16:16:49.518Z,18.10
2022-09-29T16:19:30.548Z,18.10
2022-09-29T16:22:06.332Z,18.00
2022-09-29T16:24:38.915Z,18.00
2022-09-29T16:27:26.052Z,18.00
2022-09-29T16:30:19.049Z,17.80
2022-09-29T16:32:52.130Z,17.80
2022-09-29T16:35:57.312Z,17.70
2022-09-29T16:38:40.643Z,17.60
2022-09-29T16:41:20.241Z,17.60
2022-09-29T16:43:49.826Z,17.50
2022-09-29T16:46:23.584Z,17.40
2022-09-29T16:48:50.879Z,17.30
2022-09-29T16:51:40.127Z,17.20
2022-09-29T16:54:18.449Z,17.10
2022-09-29T16:56:50.366Z,17.00
2022-09-29T16:59:20.930Z,16.90
2022-09-29T17:01:48.317Z,16.80
2022-09-29T17:04:15.475Z,16.70
2022-09-29T17:06:48.132Z,16.60
2022-09-29T17:09:22.445Z,16.50
2022-09-29T17:11:49.482Z,16.40
2022-09-29T17:14:18.436Z,16.30
2022-09-29T17:16:45.864Z,16.20
2022-09-29T17:19:14.640Z,16.10
2022-09-29T17:21:41.506Z,16.00
2022-09-29T17:24:08.489Z,16.00
2022-09-29T17:27:02.869Z,15.90
2022-09-29T17:29:30.077Z,15.80
2022-09-29T17:31:57.601Z,15.70
2022-09-29T17:34:29.247Z,15.60
2022-09-29T17:37:01.692Z,15.50
2022-09-29T17:39:28.861Z,15.50
2022-09-29T17:41:55.744Z,15.40
2022-09-29T17:44:22.607Z,15.30
2022-09-29T17:46:54.633Z,15.20
2022-09-29T17:49:25.099Z,15.10
2022-09-29T17:51:52.188Z,15.00
2022-09-29T17:54:19.238Z,15.00
2022-09-29T17:56:46.246Z,14.90
2022-09-29T17:59:14.384Z,14.80
2022-09-29T18:01:41.412Z,14.80
2022-09-29T18:04:08.311Z,14.70
2022-09-29T18:06:37.746Z,14.60
2022-09-29T18:09:17.622Z,14.50
2022-09-29T18:11:45.475Z,14.50
2022-09-29T18:14:12.507Z,14.40
2022-09-29T18:16:39.404Z,14.30
2022-09-29T18:19:17.982Z,14.20
2022-09-29T18:21:45.039Z,14.20
2022-09-29T18:24:11.899Z,14.10
2022-09-29T18:26:44.878Z,14.10
2022-09-29T18:29:18.925Z,14.00
2022-09-29T18:31:46.257Z,13.90
2022-09-29T18:34:17.575Z,13.80
2022-09-29T18:36:45.389Z,13.80
2022-09-29T18:39:14.074Z,13.70
2022-09-29T18:41:41.087Z,13.70
2022-09-29T18:44:20.443Z,13.60
2022-09-29T18:46:47.501Z,13.50
2022-09-29T18:49:14.950Z,13.50
2022-09-29T18:51:42.483Z,13.40
2022-09-29T18:54:09.523Z,13.40
2022-09-29T18:56:36.479Z,13.30
2022-09-29T18:59:06.708Z,13.30
2022-09-29T19:01:33.781Z,13.30
2022-09-29T19:04:00.779Z,13.20
2022-09-29T19:06:28.684Z,13.20
2022-09-29T19:08:56.199Z,13.20
2022-09-29T19:11:25.988Z,13.10
2022-09-29T19:13:56.557Z,13.10
2022-09-29T19:16:25.743Z,13.00
2022-09-29T19:18:52.863Z,13.00
2022-09-29T19:21:19.680Z,12.90
2022-09-29T19:23:46.666Z,12.90
2022-09-29T19:26:19.881Z,12.90
2022-09-29T19:28:49.851Z,12.80
2022-09-29T19:31:20.824Z,12.80
2022-09-29T19:33:48.780Z,12.70
2022-09-29T19:36:21.254Z,12.70
2022-09-29T19:38:48.587Z,12.60
2022-09-29T19:41:23.297Z,12.60
2022-09-29T19:43:51.350Z,12.50
2022-09-29T19:46:20.342Z,12.50
2022-09-29T19:48:47.373Z,12.40
2022-09-29T19:51:35.190Z,12.40
2022-09-29T19:54:15.015Z,12.30
2022-09-29T19:56:50.747Z,12.30
2022-09-29T19:59:29.167Z,12.20
2022-09-29T20:01:56.517Z,12.20
2022-09-29T20:04:29.979Z,12.10
2022-09-29T20:06:57.935Z,12.10
2022-09-29T20:09:25.503Z,12.00
2022-09-29T20:11:53.553Z,11.90
2022-09-29T20:14:23.622Z,11.90
2022-09-29T20:16:54.852Z,11.80
2022-09-29T20:19:24.062Z,11.80
2022-09-29T20:21:52.711Z,11.70
2022-09-29T20:24:24.074Z,11.70
2022-09-29T20:26:51.921Z,11.60
2022-09-29T20:29:20.150Z,11.60
2022-09-29T20:31:48.024Z,11.60
2022-09-29T20:34:18.358Z,11.50
2022-09-29T20:36:47.786Z,11.50
2022-09-29T20:39:19.906Z,11.40
2022-09-29T20:41:47.711Z,11.40
2022-09-29T20:44:14.605Z,11.40
2022-09-29T20:46:41.503Z,11.30
2022-09-29T20:49:09.713Z,11.30
2022-09-29T20:51:38.117Z,11.30
2022-09-29T20:54:05.333Z,11.20
2022-09-29T20:56:40.174Z,11.20
2022-09-29T20:59:10.784Z,11.10
2022-09-29T21:01:38.463Z,11.10
2022-09-29T21:04:13.526Z,11.00
2022-09-29T21:06:43.848Z,11.00
2022-09-29T21:09:14.448Z,11.00
2022-09-29T21:11:43.529Z,10.90
2022-09-29T21:14:16.643Z,10.90
2022-09-29T21:16:48.532Z,10.80
2022-09-29T21:19:15.465Z,10.80
2022-09-29T21:21:43.804Z,10.70
2022-09-29T21:24:14.429Z,10.70
2022-09-29T21:26:41.865Z,10.60
2022-09-29T21:29:16.559Z,10.60
2022-09-29T21:31:44.136Z,10.50
2022-09-29T21:34:13.532Z,10.50
2022-09-29T21:36:40.730Z,10.50
2022-09-29T21:39:09.049Z,10.40
2022-09-29T21:41:42.679Z,10.40
2022-09-29T21:44:27.734Z,10.30
2022-09-29T21:46:54.649Z,10.30
2022-09-29T21:49:21.581Z,10.30
2022-09-29T21:51:50.563Z,10.20
2022-09-29T21:54:25.175Z,10.20
2022-09-29T21:56:53.007Z,10.10
2022-09-29T21:59:22.515Z,10.10
2022-09-29T22:01:50.604Z,10.10
2022-09-29T22:04:18.337Z,10.00
2022-09-29T22:06:45.719Z,10.00
2022-09-29T22:09:18.243Z,9.90
2022-09-29T22:11:46.662Z,9.90
2022-09-29T22:14:16.603Z,9.90
2022-09-29T22:16:44.969Z,9.80
2022-09-29T22:19:28.447Z,9.80
2022-09-29T22:21:56.054Z,9.70
2022-09-29T22:24:24.079Z,9.70
2022-09-29T22:26:51.342Z,9.70
2022-09-29T22:29:18.879Z,9.60
2022-09-29T22:31:45.944Z,9.60
2022-09-29T22:34:12.920Z,9.60
2022-09-29T22:36:39.960Z,9.50
2022-09-29T22:39:08.156Z,9.50
2022-09-29T22:41:36.763Z,9.50
2022-09-29T22:44:04.423Z,9.40
2022-09-29T22:46:32.558Z,9.40
2022-09-29T22:48:59.934Z,9.30
2022-09-29T22:51:28.499Z,9.30
2022-09-29T22:53:55.337Z,9.30
2022-09-29T22:56:28.630Z,9.20
2022-09-29T22:59:01.502Z,9.20
2022-09-29T23:01:29.061Z,9.20
2022-09-29T23:03:56.591Z,9.20
2022-09-29T23:06:23.574Z,9.10
2022-09-29T23:08:50.925Z,9.10
2022-09-29T23:11:20.327Z,9.10
2022-09-29T23:13:47.999Z,9.10
2022-09-29T23:16:16.889Z,9.00
2022-09-29T23:18:46.221Z,9.00
2022-09-29T23:21:18.863Z,9.00
2022-09-29T23:23:58.059Z,9.00
2022-09-29T23:26:30.164Z,9.00
2022-09-29T23:28:57.479Z,9.00
2022-09-29T23:31:25.322Z,8.90
2022-09-29T23:34:00.250Z,8.90
2022-09-29T23:36:30.468Z,8.90
2022-09-29T23:39:09.864Z,8.90
2022-09-29T23:41:43.101Z,8.90
2022-09-29T23:44:18.455Z,8.90
2022-09-29T23:46:46.299Z,8.90
2022-09-29T23:49:17.792Z,8.80
2022-09-29T23:51:48.035Z,8.80
2022-09-29T23:54:18.984Z,8.80
2022-09-29T23:56:47.744Z,8.80
2022-09-29T23:59:15.778Z,8.80
